Time;durP1;ratioP1;P1;durP2;ratioP2;P2;SDS_P1;SDS_P2;PMS_P1;PMS_P2;Temp;Humidity;BMP_temperature;BMP_pressure;BME280_temperature;BME280_humidity;BME280_pressure;Samples;Min_cycle;Max_cycle;Signal;HPM_P1;HPM_P2
2022/01/01 00:02:00;;;;;;;64.00;33.05;;;;;;;12.05;90.79;102281.59;5060956;28;20500;-62
2022/01/01 00:04:25;;;;;;;63.42;34.40;;;;;;;12.06;90.86;102285.09;5064335;28;20047;-62
2022/01/01 00:06:51;;;;;;;64.22;35.63;;;;;;;12.03;90.67;102277.41;5054505;28;20040;-61
2022/01/01 00:09:16;;;;;;;64.97;35.00;;;;;;;12.03;91.07;102285.38;5059888;28;20103;-61
2022/01/01 00:11:41;;;;;;;68.75;37.95;;;;;;;12.05;91.13;102289.59;5062788;28;20025;-61
2022/01/01 00:14:06;;;;;;;64.72;36.30;;;;;;;12.04;91.22;102298.56;5067038;28;20024;-62
2022/01/01 00:16:32;;;;;;;69.47;36.45;;;;;;;12.06;91.18;102301.91;5061013;28;20028;-61
2022/01/01 00:18:57;;;;;;;60.47;35.42;;;;;;;12.04;91.15;102297.72;5058641;28;20048;-62
2022/01/01 00:21:22;;;;;;;64.13;35.83;;;;;;;12.02;91.06;102289.88;5053694;28;20071;-62
2022/01/01 00:23:48;;;;;;;60.70;35.70;;;;;;;12.03;91.22;102299.53;5063843;28;20033;-61
2022/01/01 00:26:14;;;;;;;67.40;36.10;;;;;;;12.05;91.51;102297.56;5058884;28;20058;-62
2022/01/01 00:28:39;;;;;;;66.18;35.22;;;;;;;12.07;91.55;102303.59;5058265;28;20090;-61
2022/01/01 00:31:05;;;;;;;64.30;34.17;;;;;;;12.06;91.76;102301.91;5053337;28;20476;-61
2022/01/01 00:33:31;;;;;;;63.97;33.17;;;;;;;12.06;91.40;102301.06;5057319;28;20068;-62
2022/01/01 00:35:56;;;;;;;56.35;29.70;;;;;;;12.03;91.31;102296.03;5055917;28;20025;-62
2022/01/01 00:38:22;;;;;;;58.67;28.77;;;;;;;12.08;91.40;102305.28;5056065;28;20092;-61
2022/01/01 00:40:47;;;;;;;52.47;28.10;;;;;;;12.10;91.47;102302.47;5056173;28;20502;-62
2022/01/01 00:43:12;;;;;;;58.33;28.83;;;;;;;12.12;91.14;102305.81;5050930;28;20031;-61
2022/01/01 00:45:38;;;;;;;52.40;27.85;;;;;;;12.11;91.16;102298.81;5061237;28;20566;-61
2022/01/01 00:48:04;;;;;;;54.03;27.15;;;;;;;12.12;91.33;102292.50;5060439;28;20476;-61
2022/01/01 00:50:29;;;;;;;55.17;27.13;;;;;;;12.12;91.04;102287.19;5058170;28;20031;-62
2022/01/01 00:52:54;;;;;;;48.45;25.23;;;;;;;12.13;90.76;102282.69;5050919;28;20036;-61
2022/01/01 00:55:20;;;;;;;57.95;25.33;;;;;;;12.12;91.15;102283.66;5054819;28;20028;-62
2022/01/01 00:57:47;;;;;;;52.70;23.77;;;;;;;12.10;90.89;102289.16;5057256;28;20032;-61
2022/01/01 01:00:12;;;;;;;46.47;24.48;;;;;;;12.10;90.92;102289.97;5062842;28;20032;-62
2022/01/01 01:02:38;;;;;;;55.58;24.52;;;;;;;12.09;90.82;102295.47;5056127;28;20090;-62
2022/01/01 01:05:03;;;;;;;48.33;23.13;;;;;;;12.11;90.65;102301.47;5063265;28;20036;-61
2022/01/01 01:07:28;;;;;;;53.10;24.05;;;;;;;12.07;90.89;102292.94;5054994;28;20060;-62
2022/01/01 01:09:54;;;;;;;52.65;23.50;;;;;;;12.06;90.85;102285.94;5061136;28;20028;-61
2022/01/01 01:12:24;;;;;;;55.28;23.08;;;;;;;12.06;91.17;102282.44;5066560;28;20369;-61
2022/01/01 01:14:49;;;;;;;43.83;20.83;;;;;;;12.04;90.80;102290.56;5056254;28;20029;-62
2022/01/01 01:17:15;;;;;;;48.22;20.52;;;;;;;12.03;90.88;102285.38;5059331;28;20047;-61
2022/01/01 01:19:40;;;;;;;52.70;20.38;;;;;;;12.04;90.72;102293.22;5052557;28;20238;-61
2022/01/01 01:22:06;;;;;;;50.55;19.52;;;;;;;12.04;90.73;102303.03;5050951;28;20392;-61
2022/01/01 01:24:33;;;;;;;47.42;19.65;;;;;;;12.00;90.62;102305.16;5062389;28;20035;-61
2022/01/01 01:27:01;;;;;;;46.97;19.42;;;;;;;12.00;90.58;102307.81;5059330;28;20049;-61
2022/01/01 01:29:27;;;;;;;43.13;19.50;;;;;;;12.00;90.92;102305.16;5064965;28;20036;-62
2022/01/01 01:31:52;;;;;;;47.15;19.38;;;;;;;11.99;91.03;102307.97;5058321;28;20036;-61
2022/01/01 01:34:17;;;;;;;38.65;18.35;;;;;;;12.00;90.83;102309.66;5055621;28;20063;-61
2022/01/01 01:36:43;;;;;;;45.05;18.42;;;;;;;12.00;90.87;102301.66;5053315;28;20029;-62
2022/01/01 01:39:08;;;;;;;46.67;18.63;;;;;;;11.98;90.99;102298.31;5061457;28;20024;-61
2022/01/01 01:41:34;;;;;;;44.95;18.02;;;;;;;11.97;90.89;102308.13;5058697;28;20029;-61
2022/01/01 01:43:59;;;;;;;48.03;18.33;;;;;;;11.96;91.14;102301.13;5056408;28;20059;-62
2022/01/01 01:46:26;;;;;;;51.22;17.85;;;;;;;11.96;91.23;102310.91;5059608;28;20032;-61
2022/01/01 01:48:51;;;;;;;52.97;19.00;;;;;;;11.96;91.07;102321.56;5065290;28;20487;-61
2022/01/01 01:51:17;;;;;;;39.40;17.25;;;;;;;11.93;91.12;102328.03;5057350;28;20111;-62
2022/01/01 01:53:42;;;;;;;43.00;17.50;;;;;;;11.92;91.25;102322.84;5051234;28;20029;-61
2022/01/01 01:56:08;;;;;;;43.65;18.40;;;;;;;11.92;91.52;102322.84;5057075;28;20047;-61
2022/01/01 01:58:34;;;;;;;47.78;18.38;;;;;;;11.91;91.67;102330.00;5049768;28;20505;-61
2022/01/01 02:03:43;;;;;;;47.03;18.60;;;;;;;11.91;91.63;102330.00;5058043;28;20163;-62
2022/01/01 02:06:08;;;;;;;68.30;25.48;;;;;;;11.91;92.13;102337.97;5061944;28;20114;-62
2022/01/01 02:08:34;;;;;;;67.13;25.33;;;;;;;11.91;91.94;102330.00;5059067;28;20028;-61
2022/01/01 02:11:00;;;;;;;53.85;19.50;;;;;;;11.91;92.30;102323.81;5064469;28;20391;-61
2022/01/01 02:13:47;;;;;;;49.97;17.92;;;;;;;11.88;92.39;102316.97;5066910;28;20032;-61
2022/01/01 02:18:53;;;;;;;50.38;18.48;;;;;;;11.90;92.31;102317.66;5065088;28;20037;-61
2022/01/01 02:21:20;;;;;;;43.28;16.50;;;;;;;11.89;92.72;102323.13;5058503;28;20650;-62
2022/01/01 02:23:47;;;;;;;44.70;17.67;;;;;;;11.88;92.54;102322.28;5068643;28;20085;-62
2022/01/01 02:26:15;;;;;;;46.30;16.80;;;;;;;11.87;92.71;102317.94;5060813;28;20105;-61
2022/01/01 02:28:48;;;;;;;42.00;15.38;;;;;;;11.85;92.88;102319.03;5061965;28;20028;-62
2022/01/01 02:31:14;;;;;;;51.38;16.27;;;;;;;11.82;92.99;102325.50;5063193;28;20423;-62
2022/01/01 02:33:42;;;;;;;41.05;15.45;;;;;;;11.81;92.85;102312.34;5057336;28;20032;-61
2022/01/01 02:36:07;;;;;;;42.50;17.08;;;;;;;11.81;93.41;102317.66;5066028;28;20028;-61
2022/01/01 02:38:34;;;;;;;46.53;15.57;;;;;;;11.82;93.11;102322.00;5062687;28;20091;-62
2022/01/01 02:41:00;;;;;;;43.47;15.95;;;;;;;11.83;93.33;102318.34;5064011;28;20032;-62
2022/01/01 02:43:25;;;;;;;46.47;16.52;;;;;;;11.84;93.50;102310.22;5068194;28;20028;-60
2022/01/01 02:45:51;;;;;;;45.25;15.88;;;;;;;11.85;93.72;102314.56;5068784;28;20412;-61
2022/01/01 02:48:17;;;;;;;40.50;17.02;;;;;;;11.85;93.67;102319.88;5065034;28;20060;-61
2022/01/01 02:50:42;;;;;;;41.92;16.20;;;;;;;11.85;93.57;102300.41;5066931;28;20464;-61
2022/01/01 02:53:12;;;;;;;37.97;16.10;;;;;;;11.86;93.93;102304.78;5056024;28;20033;-61
2022/01/01 02:55:37;;;;;;;41.05;15.60;;;;;;;11.88;93.61;102294.84;5059229;28;20044;-61
2022/01/01 02:58:04;;;;;;;34.08;14.95;;;;;;;11.85;93.73;102290.59;5055804;28;20111;-61
2022/01/01 03:00:29;;;;;;;37.70;15.65;;;;;;;11.86;93.92;102287.00;5065098;28;20024;-61
2022/01/01 03:02:54;;;;;;;34.78;15.15;;;;;;;11.87;93.83;102290.50;5058667;28;20047;-61
2022/01/01 03:05:20;;;;;;;38.53;15.35;;;;;;;11.85;93.98;102285.28;5068446;28;20521;-61
2022/01/01 03:07:45;;;;;;;33.60;15.02;;;;;;;11.86;93.74;102287.00;5069532;28;20020;-61
2022/01/01 03:10:10;;;;;;;33.92;15.35;;;;;;;11.87;93.77;102288.66;5061922;28;20029;-62
2022/01/01 03:12:36;;;;;;;37.58;15.73;;;;;;;11.89;93.77;102293.84;5064020;28;20392;-61
2022/01/01 03:15:02;;;;;;;40.00;15.75;;;;;;;11.88;93.52;102300.16;5063049;28;20032;-62
2022/01/01 03:17:27;;;;;;;32.40;14.50;;;;;;;11.85;93.80;102289.78;5067226;28;20043;-62
2022/01/01 03:19:52;;;;;;;34.53;14.32;;;;;;;11.84;93.88;102288.94;5060732;28;20484;-62
2022/01/01 03:22:17;;;;;;;33.75;14.38;;;;;;;11.83;93.84;102292.56;5067645;28;20028;-62
2022/01/01 03:24:43;;;;;;;34.83;13.85;;;;;;;11.84;94.01;102290.75;5059919;28;20031;-61
2022/01/01 03:27:08;;;;;;;31.23;13.57;;;;;;;11.84;94.04;102288.94;5054497;28;20056;-62
2022/01/01 03:29:33;;;;;;;36.03;13.02;;;;;;;11.84;93.59;102288.94;5052985;28;20029;-61
2022/01/01 03:31:59;;;;;;;28.63;13.13;;;;;;;11.85;93.80;102287.09;5055625;28;20025;-62
2022/01/01 03:34:24;;;;;;;26.65;13.18;;;;;;;11.84;93.52;102280.94;5056931;28;20028;-62
2022/01/01 03:36:50;;;;;;;30.48;13.35;;;;;;;11.85;93.69;102284.44;5060129;28;20411;-61
2022/01/01 03:39:15;;;;;;;32.75;13.25;;;;;;;11.85;93.62;102290.59;5058935;28;20029;-61
2022/01/01 03:41:40;;;;;;;35.97;13.75;;;;;;;11.80;93.46;102284.88;5059419;28;20111;-60
2022/01/01 03:44:06;;;;;;;34.92;14.25;;;;;;;11.80;93.64;102287.53;5066763;28;20512;-62
2022/01/01 03:46:31;;;;;;;36.83;14.90;;;;;;;11.79;93.58;102280.53;5058823;28;20439;-61
2022/01/01 03:48:56;;;;;;;31.48;13.93;;;;;;;11.78;93.60;102274.38;5055825;28;20079;-62
2022/01/01 03:51:21;;;;;;;29.10;13.80;;;;;;;11.76;93.32;102271.00;5061676;28;20028;-62
2022/01/01 03:53:47;;;;;;;37.28;13.77;;;;;;;11.77;93.27;102277.16;5058817;28;20069;-61
2022/01/01 03:56:14;;;;;;;32.05;13.90;;;;;;;11.77;93.21;102275.31;5055804;28;20396;-62
2022/01/01 03:58:40;;;;;;;31.70;14.85;;;;;;;11.79;93.69;102277.88;5061047;28;20095;-59
2022/01/01 04:01:05;;;;;;;31.50;14.25;;;;;;;11.80;93.25;102279.56;5057068;28;20441;-61
2022/01/01 04:03:30;;;;;;;24.92;13.82;;;;;;;11.81;93.43;102277.72;5054167;28;20028;-62
2022/01/01 04:05:56;;;;;;;31.67;14.80;;;;;;;11.83;93.10;102284.59;5052183;28;20518;-62
2022/01/01 04:08:21;;;;;;;29.20;14.13;;;;;;;11.84;93.28;102280.09;5056701;28;20039;-62
2022/01/01 04:10:46;;;;;;;31.42;14.57;;;;;;;11.86;93.15;102283.50;5062054;28;20023;-61
2022/01/01 04:13:12;;;;;;;32.83;15.70;;;;;;;11.85;92.88;102279.13;5060309;28;20091;-60
2022/01/01 04:15:41;;;;;;;32.58;14.32;;;;;;;11.85;92.84;102279.13;5065493;28;20036;-61
2022/01/01 04:18:12;;;;;;;;;;;;;;;11.86;92.68;102278.16;5065792;28;20021;-61
2022/01/01 04:20:38;;;;;;;28.70;13.90;;;;;;;11.84;92.48;102275.63;5059613;28;20341;-62
2022/01/01 04:23:08;;;;;;;30.10;14.18;;;;;;;11.86;92.33;102278.16;5063233;28;20051;-62
2022/01/01 04:25:33;;;;;;;29.23;13.45;;;;;;;11.84;92.72;102270.28;5056430;28;20029;-61
2022/01/01 04:27:58;;;;;;;29.65;14.23;;;;;;;11.83;92.43;102271.28;5055743;28;20476;-62
2022/01/01 04:30:25;;;;;;;29.83;14.27;;;;;;;11.83;92.50;102278.44;5058603;28;20020;-62
2022/01/01 04:32:50;;;;;;;29.73;13.80;;;;;;;11.84;92.31;102272.97;5063707;28;20028;-61
2022/01/01 04:35:15;;;;;;;26.27;12.98;;;;;;;11.85;92.42;102271.13;5058388;28;20443;-61
2022/01/01 04:37:41;;;;;;;32.35;13.38;;;;;;;11.85;92.03;102277.28;5055598;28;20412;-61
2022/01/01 04:40:08;;;;;;;31.85;13.93;;;;;;;11.85;92.16;102276.47;5058314;28;20036;-61
2022/01/01 04:42:34;;;;;;;29.42;12.90;;;;;;;11.85;92.11;102277.28;5054908;28;20131;-62
2022/01/01 04:44:59;;;;;;;29.00;13.27;;;;;;;11.86;92.12;102278.16;5057409;28;20119;-62
2022/01/01 04:47:25;;;;;;;24.80;12.23;;;;;;;11.86;91.85;102280.81;5038800;28;20029;-61
2022/01/01 04:49:51;;;;;;;30.42;13.45;;;;;;;11.86;92.04;102283.50;5058099;28;20436;-61
2022/01/01 04:52:17;;;;;;;27.20;13.07;;;;;;;11.89;91.85;102283.19;5060357;28;20633;-61
2022/01/01 04:54:44;;;;;;;26.85;11.63;;;;;;;11.91;91.77;102281.22;5059350;28;20025;-62
2022/01/01 04:57:09;;;;;;;29.42;12.05;;;;;;;11.92;91.58;102277.59;5059352;28;20396;-62
2022/01/01 04:59:35;;;;;;;21.63;11.18;;;;;;;11.92;91.32;102281.09;5054518;28;20477;-62
2022/01/01 05:02:02;;;;;;;28.35;11.43;;;;;;;11.91;91.54;102291.88;5059642;28;20037;-61
2022/01/01 05:04:27;;;;;;;30.42;11.57;;;;;;;11.87;91.25;102283.34;5056007;28;20039;-61
2022/01/01 05:06:53;;;;;;;23.52;10.73;;;;;;;11.90;91.51;102288.38;5056974;28;20033;-62
2022/01/01 05:09:19;;;;;;;29.38;11.18;;;;;;;11.91;91.45;102290.06;5052309;28;20637;-60
2022/01/01 05:11:45;;;;;;;24.08;11.32;;;;;;;11.93;91.39;102289.91;5064352;28;20028;-62
2022/01/01 05:14:11;;;;;;;24.10;11.20;;;;;;;11.95;91.18;102295.94;5061449;28;20028;-61
2022/01/01 05:16:36;;;;;;;30.10;12.48;;;;;;;11.96;90.67;102295.78;5059076;28;20024;-61
2022/01/01 05:19:02;;;;;;;30.60;12.93;;;;;;;11.98;90.70;102301.81;5051757;28;20033;-61
2022/01/01 05:21:31;;;;;;;30.35;11.55;;;;;;;11.99;90.59;102303.47;5065071;28;20544;-62
2022/01/01 05:23:56;;;;;;;27.05;11.15;;;;;;;11.99;90.62;102305.31;5053905;28;20106;-62
2022/01/01 05:26:22;;;;;;;20.67;10.07;;;;;;;12.01;90.49;102308.66;5051526;28;20110;-61
2022/01/01 05:28:49;;;;;;;20.83;9.73;;;;;;;11.99;90.07;102298.16;5052890;28;20025;-62
2022/01/01 05:31:15;;;;;;;22.13;9.82;;;;;;;12.01;90.25;102298.00;5058790;28;20028;-61
2022/01/01 05:33:40;;;;;;;25.92;9.65;;;;;;;11.99;90.40;102302.66;5057632;28;20037;-62
2022/01/01 05:36:06;;;;;;;25.27;9.85;;;;;;;11.99;90.16;102306.16;5044184;28;20377;-62
2022/01/01 05:38:31;;;;;;;27.60;9.77;;;;;;;11.99;90.16;102300.81;5057918;28;20029;-62
2022/01/01 05:40:56;;;;;;;20.55;9.15;;;;;;;11.98;90.10;102301.81;5056644;28;20175;-62
2022/01/01 05:43:22;;;;;;;21.33;8.93;;;;;;;12.00;89.65;102301.66;5058890;28;20401;-61
2022/01/01 05:45:47;;;;;;;20.25;8.63;;;;;;;11.99;89.72;102297.31;5054979;28;20028;-61
2022/01/01 05:48:12;;;;;;;22.73;9.20;;;;;;;11.99;89.80;102295.50;5052599;28;20029;-61
2022/01/01 05:50:38;;;;;;;26.23;9.32;;;;;;;11.97;89.67;102300.13;5053247;28;20021;-61
2022/01/01 05:53:03;;;;;;;21.38;8.40;;;;;;;11.97;89.53;102293.97;5051829;28;20021;-62
2022/01/01 05:55:28;;;;;;;19.95;8.55;;;;;;;11.94;89.70;102289.78;5052559;28;20029;-61
2022/01/01 05:57:54;;;;;;;18.10;8.73;;;;;;;11.94;89.56;102287.09;5060905;28;20029;-62
2022/01/01 06:00:19;;;;;;;19.48;8.75;;;;;;;11.92;89.65;102281.09;5059513;28;20380;-62
2022/01/01 06:02:44;;;;;;;20.45;9.15;;;;;;;11.91;89.14;102283.91;5050576;28;20025;-62
2022/01/01 06:05:10;;;;;;;17.27;8.57;;;;;;;11.93;89.42;102279.25;5056765;28;20304;-61
2022/01/01 06:07:35;;;;;;;21.27;8.50;;;;;;;11.93;89.03;102271.28;5054637;28;20033;-62
2022/01/01 06:10:01;;;;;;;22.92;7.55;;;;;;;11.91;89.06;102278.56;5059088;28;20025;-61
2022/01/01 06:12:26;;;;;;;20.25;8.50;;;;;;;11.86;88.95;102273.69;5056491;28;20060;-62
2022/01/01 06:14:52;;;;;;;20.58;8.52;;;;;;;11.84;89.13;102272.97;5055626;28;20095;-62
2022/01/01 06:17:17;;;;;;;22.33;8.15;;;;;;;11.79;89.00;102273.38;5060469;28;20082;-61
2022/01/01 06:19:43;;;;;;;18.90;7.85;;;;;;;11.75;89.03;102274.63;5056252;28;20393;-61
2022/01/01 06:22:08;;;;;;;21.27;8.32;;;;;;;11.70;89.37;102268.06;5063023;28;20103;-61
2022/01/01 06:24:33;;;;;;;20.90;8.02;;;;;;;11.68;89.16;102270.03;5053582;28;20021;-62
2022/01/01 06:26:58;;;;;;;20.17;7.07;;;;;;;11.65;89.45;102273.81;5056087;28;20356;-62
2022/01/01 06:29:24;;;;;;;21.25;7.53;;;;;;;11.63;89.10;102274.94;5058610;28;20086;-62
2022/01/01 06:31:49;;;;;;;20.63;7.63;;;;;;;11.62;89.24;102282.09;5049613;28;20028;-62
2022/01/01 06:34:14;;;;;;;17.13;7.25;;;;;;;11.60;88.93;102277.91;5056148;28;20037;-61
2022/01/01 06:36:39;;;;;;;19.05;6.85;;;;;;;11.58;89.04;102293.16;5049438;28;20040;-61
2022/01/01 06:39:05;;;;;;;19.05;7.32;;;;;;;11.57;89.38;102288.81;5058863;28;20052;-61
2022/01/01 06:41:30;;;;;;;21.45;7.55;;;;;;;11.52;89.37;102281.25;5055123;28;20079;-62
2022/01/01 06:43:55;;;;;;;20.00;7.55;;;;;;;11.48;89.05;102282.50;5053923;28;20074;-62
2022/01/01 06:46:20;;;;;;;17.50;7.13;;;;;;;11.42;88.95;102283.91;5053809;28;20024;-62
2022/01/01 06:48:46;;;;;;;18.58;7.47;;;;;;;11.39;89.37;102288.69;5061050;28;20083;-61
2022/01/01 06:51:11;;;;;;;19.55;6.85;;;;;;;11.38;89.51;102285.19;5055980;28;20031;-62
2022/01/01 06:53:36;;;;;;;20.98;7.53;;;;;;;11.40;89.65;102283.22;5062126;28;20112;-60
2022/01/01 06:56:05;;;;;;;17.08;7.50;;;;;;;11.44;89.46;102289.09;5061235;28;20024;-62
2022/01/01 06:58:35;;;;;;;16.30;7.10;;;;;;;11.43;89.46;102287.41;5060981;28;20024;-62
2022/01/01 07:01:01;;;;;;;17.25;6.97;;;;;;;11.43;89.18;102280.28;5059184;28;20484;-62
2022/01/01 07:03:26;;;;;;;18.42;6.97;;;;;;;11.44;89.52;102292.59;5056576;28;20040;-61
2022/01/01 07:05:51;;;;;;;21.92;7.90;;;;;;;11.45;89.31;102294.28;5059998;28;20035;-61
2022/01/01 07:08:17;;;;;;;18.95;7.25;;;;;;;11.47;88.98;102310.94;5053123;28;20029;-61
2022/01/01 07:10:44;;;;;;;16.42;6.60;;;;;;;11.48;89.28;102307.28;5058266;28;20025;-61
2022/01/01 07:13:10;;;;;;;18.45;6.93;;;;;;;11.48;89.33;102312.63;5056368;28;20028;-61
2022/01/01 07:15:36;;;;;;;17.05;6.93;;;;;;;11.47;89.15;102315.41;5055805;28;20070;-61
2022/01/01 07:18:01;;;;;;;20.23;7.05;;;;;;;11.48;89.10;102307.28;5065545;28;20024;-61
2022/01/01 07:20:26;;;;;;;18.05;7.00;;;;;;;11.49;89.34;102308.97;5061947;28;20020;-61
2022/01/01 07:22:51;;;;;;;16.38;6.43;;;;;;;11.53;88.82;102311.34;5066493;28;20086;-62
2022/01/01 07:25:17;;;;;;;14.90;6.22;;;;;;;11.54;88.84;102305.88;5057261;28;20105;-61
2022/01/01 07:27:42;;;;;;;13.90;6.13;;;;;;;11.59;88.53;102324.13;5063081;28;20017;-61
2022/01/01 07:30:09;;;;;;;16.75;6.20;;;;;;;11.62;88.30;102318.50;5064377;28;20079;-61
2022/01/01 07:32:42;;;;;;;16.13;6.15;;;;;;;11.62;88.23;102319.34;5060771;28;20025;-61
2022/01/01 07:35:08;;;;;;;16.00;6.00;;;;;;;11.61;88.34;102309.69;5057755;28;20431;-61
2022/01/01 07:37:34;;;;;;;15.98;5.88;;;;;;;11.62;88.38;102314.03;5058936;28;20028;-61
2022/01/01 07:39:59;;;;;;;14.13;5.97;;;;;;;11.62;87.87;102324.66;5061696;28;20029;-61
2022/01/01 07:42:24;;;;;;;17.42;6.47;;;;;;;11.62;87.93;102330.00;5062645;28;20396;-62
2022/01/01 07:44:49;;;;;;;19.33;6.43;;;;;;;11.64;88.10;102329.84;5056497;28;20033;-61
2022/01/01 07:47:15;;;;;;;16.20;5.82;;;;;;;11.64;87.82;102330.69;5059364;28;20490;-62
2022/01/01 07:49:42;;;;;;;14.70;6.10;;;;;;;11.62;87.69;102339.78;5056469;28;20063;-61
2022/01/01 07:52:09;;;;;;;17.33;6.28;;;;;;;11.62;87.96;102340.63;5042305;28;20048;-61
2022/01/01 07:54:34;;;;;;;17.75;6.20;;;;;;;11.64;87.90;102344.00;5062315;28;20031;-62
2022/01/01 07:57:00;;;;;;;15.90;6.32;;;;;;;11.64;87.76;102348.47;5056943;28;20464;-62
2022/01/01 07:59:25;;;;;;;17.13;6.20;;;;;;;11.63;87.85;102347.63;5056949;28;20492;-62
2022/01/01 08:01:50;;;;;;;12.80;5.45;;;;;;;11.62;88.08;102350.44;5063246;28;20021;-62
2022/01/01 08:04:15;;;;;;;15.00;5.95;;;;;;;11.63;87.86;102347.63;5056926;28;20059;-62
2022/01/01 08:06:41;;;;;;;13.90;5.50;;;;;;;11.65;87.50;102347.50;5065388;28;20507;-62
2022/01/01 08:09:06;;;;;;;20.05;6.28;;;;;;;11.66;87.78;102344.69;5051814;28;20091;-61
2022/01/01 08:11:31;;;;;;;18.40;5.97;;;;;;;11.67;87.18;102348.19;5060934;28;20451;-62
2022/01/01 08:13:57;;;;;;;15.25;5.93;;;;;;;11.68;87.50;102345.38;5057581;28;20032;-62
2022/01/01 08:16:22;;;;;;;13.13;5.20;;;;;;;11.70;87.35;102355.88;5056097;28;20074;-62
2022/01/01 08:18:48;;;;;;;17.13;5.80;;;;;;;11.71;87.11;102344.25;5051333;28;20025;-62
2022/01/01 08:21:13;;;;;;;13.25;5.82;;;;;;;11.72;87.03;102340.63;5062693;28;20035;-61
2022/01/01 08:23:39;;;;;;;17.38;5.78;;;;;;;11.72;86.98;102335.28;5056617;28;20408;-61
2022/01/01 08:26:04;;;;;;;16.33;5.95;;;;;;;11.73;87.15;102343.13;5058382;28;20417;-62
2022/01/01 08:28:29;;;;;;;13.40;5.85;;;;;;;11.75;86.61;102356.31;5055192;28;20106;-62
2022/01/01 08:30:55;;;;;;;13.65;5.90;;;;;;;11.74;86.54;102344.81;5053507;28;20024;-61
2022/01/01 08:33:21;;;;;;;15.40;5.97;;;;;;;11.75;86.69;102341.16;5052746;28;20025;-62
2022/01/01 08:35:46;;;;;;;18.27;6.20;;;;;;;11.72;86.58;102333.47;5050596;28;20189;-61
2022/01/01 08:38:13;;;;;;;12.82;5.47;;;;;;;11.74;86.80;102334.16;5048552;28;20567;-61
2022/01/01 08:40:39;;;;;;;15.77;5.93;;;;;;;11.75;86.35;102340.34;5050820;28;20032;-62
2022/01/01 08:43:04;;;;;;;15.40;5.80;;;;;;;11.75;86.39;102346.50;5051548;28;20029;-62
2022/01/01 08:45:29;;;;;;;18.33;6.20;;;;;;;11.73;86.79;102339.63;5054565;28;20083;-61
2022/01/01 08:47:55;;;;;;;18.00;6.30;;;;;;;11.71;86.48;102341.59;5051249;28;20033;-62
2022/01/01 08:50:20;;;;;;;15.20;5.70;;;;;;;11.70;86.69;102353.22;5052623;28;20029;-62
2022/01/01 08:52:45;;;;;;;13.70;6.25;;;;;;;11.68;86.92;102333.91;5053076;28;20268;-62
2022/01/01 08:55:11;;;;;;;15.57;6.35;;;;;;;11.65;86.54;102345.66;5058377;28;20028;-62
2022/01/01 08:57:36;;;;;;;14.48;6.43;;;;;;;11.64;86.59;102348.47;5048825;28;20032;-61
2022/01/01 09:00:06;;;;;;;14.98;6.90;;;;;;;11.61;86.54;102349.59;5054635;28;20060;-62
2022/01/01 09:02:32;;;;;;;13.18;6.53;;;;;;;11.59;87.10;102348.06;5058362;28;20021;-61
2022/01/01 09:04:57;;;;;;;15.43;7.03;;;;;;;11.58;87.11;102344.56;5058790;28;20044;-62
2022/01/01 09:07:28;;;;;;;16.20;6.72;;;;;;;11.55;87.11;102339.50;5050588;28;20060;-61
2022/01/01 09:09:53;;;;;;;16.30;6.50;;;;;;;11.54;86.98;102343.13;5060583;28;20051;-62
2022/01/01 09:12:19;;;;;;;18.13;7.18;;;;;;;11.56;86.94;102337.66;5052432;28;20489;-62
2022/01/01 09:14:44;;;;;;;20.33;7.15;;;;;;;11.55;87.08;102334.16;5056067;28;20051;-62
2022/01/01 09:17:10;;;;;;;17.00;7.15;;;;;;;11.55;87.33;102333.31;5059907;28;20036;-62
2022/01/01 09:19:35;;;;;;;14.23;6.72;;;;;;;11.53;87.27;102344.13;5037616;28;20028;-62
2022/01/01 09:22:00;;;;;;;15.23;6.97;;;;;;;11.53;87.37;102332.63;5059457;28;20063;-62
2022/01/01 09:24:25;;;;;;;16.42;7.25;;;;;;;11.52;87.39;102328.28;5059652;28;20032;-62
2022/01/01 09:26:51;;;;;;;16.42;7.65;;;;;;;11.52;87.18;102325.63;5058011;28;20044;-62
2022/01/01 09:29:18;;;;;;;15.40;7.70;;;;;;;11.49;87.61;102321.44;5058920;28;20382;-62
2022/01/01 09:31:44;;;;;;;19.27;8.18;;;;;;;11.51;87.23;102322.13;5056957;28;20369;-62
2022/01/01 09:34:10;;;;;;;16.30;7.85;;;;;;;11.52;87.68;102317.66;5052411;28;20047;-62
2022/01/01 09:36:36;;;;;;;14.68;7.57;;;;;;;11.52;87.45;102313.16;5057530;28;20028;-62
2022/01/01 09:39:03;;;;;;;17.33;7.93;;;;;;;11.53;87.77;102324.66;5064948;28;20039;-61
2022/01/01 09:41:29;;;;;;;18.15;7.60;;;;;;;11.53;87.52;102312.19;5057190;28;20475;-62
2022/01/01 09:43:56;;;;;;;15.80;7.60;;;;;;;11.53;87.81;102322.00;5063105;28;20061;-62
2022/01/01 09:46:22;;;;;;;12.38;7.35;;;;;;;11.53;87.73;102322.00;5057641;28;20036;-62
2022/01/01 09:48:50;;;;;;;17.05;8.10;;;;;;;11.54;87.38;102316.53;5051212;28;20036;-61
2022/01/01 09:51:15;;;;;;;18.67;7.78;;;;;;;11.53;87.63;102314.00;5052527;28;20058;-62
2022/01/01 09:53:41;;;;;;;17.33;7.90;;;;;;;11.52;87.58;102312.31;5063945;28;20059;-62
2022/01/01 09:56:06;;;;;;;19.42;8.82;;;;;;;11.51;87.33;102321.28;5054942;28;20033;-62
2022/01/01 09:58:33;;;;;;;15.70;7.63;;;;;;;11.49;87.59;102313.44;5053765;28;20031;-62
2022/01/01 10:01:00;;;;;;;17.98;7.80;;;;;;;11.48;87.52;102314.44;5058213;28;20041;-62
2022/01/01 10:03:37;;;;;;;15.40;7.90;;;;;;;11.48;87.39;102325.91;5057646;28;20032;-62
2022/01/01 10:06:08;;;;;;;18.00;8.40;;;;;;;11.46;87.50;102313.72;5057994;28;20036;-62
2022/01/01 10:08:36;;;;;;;18.77;8.20;;;;;;;11.48;87.84;102304.63;5058959;28;20036;-62
2022/01/01 10:11:01;;;;;;;16.85;8.23;;;;;;;11.52;87.99;102291.88;5060954;28;20025;-62
2022/01/01 10:13:32;;;;;;;18.05;8.02;;;;;;;11.52;87.57;102280.41;5053541;28;20094;-62
2022/01/01 10:16:00;;;;;;;15.38;8.18;;;;;;;11.58;87.54;102285.19;5058308;28;20090;-62
2022/01/01 10:18:30;;;;;;;16.02;7.78;;;;;;;11.63;87.85;102277.59;5060308;28;20484;-62
2022/01/01 10:21:13;;;;;;;17.83;7.95;;;;;;;11.67;87.53;102276.34;5055086;28;20488;-62
2022/01/01 10:23:44;;;;;;;17.73;8.10;;;;;;;11.68;87.78;102286.84;5055883;28;20025;-62
2022/01/01 10:29:30;;;;;;;19.88;8.75;;;;;;;11.73;87.32;102283.75;5052293;28;20046;-61
2022/01/01 10:32:01;;;;;;;22.58;9.40;;;;;;;11.72;87.48;102272.25;5055281;28;20025;-61
2022/01/01 10:34:31;;;;;;;20.58;8.40;;;;;;;11.72;87.57;102266.94;5054474;28;20033;-62
2022/01/01 10:36:57;;;;;;;16.30;7.85;;;;;;;11.74;87.30;102264.97;5060413;28;20108;-62
2022/01/01 10:39:22;;;;;;;16.73;8.30;;;;;;;11.76;87.59;102273.66;5054900;28;20112;-61
2022/01/01 10:42:00;;;;;;;16.02;8.15;;;;;;;11.81;87.24;102270.59;5056034;28;20104;-62
2022/01/01 10:44:38;;;;;;;19.92;8.30;;;;;;;11.85;87.29;102257.81;5055773;28;20465;-62
2022/01/01 10:47:15;;;;;;;14.20;7.97;;;;;;;11.87;87.31;102258.56;5061217;28;20054;-61
2022/01/01 10:52:28;;;;;;;16.55;7.72;;;;;;;11.92;86.89;102238.50;5063297;28;20241;-61
2022/01/01 10:55:04;;;;;;;14.88;7.82;;;;;;;11.99;87.10;102254.72;5060590;28;20032;-61
2022/01/01 10:57:33;;;;;;;14.15;7.75;;;;;;;11.95;86.61;102259.50;5059107;28;20403;-61
2022/01/01 11:00:05;;;;;;;17.92;8.07;;;;;;;11.95;86.46;102240.03;5045649;28;20502;-61
2022/01/01 11:02:35;;;;;;;18.73;7.75;;;;;;;11.95;86.50;102245.34;5058605;28;20079;-61
2022/01/01 11:05:00;;;;;;;15.45;8.20;;;;;;;11.95;86.52;102245.34;5052367;28;20032;-61
2022/01/01 11:07:30;;;;;;;13.75;8.02;;;;;;;11.96;86.92;102236.38;5062642;28;20099;-62
2022/01/01 11:09:57;;;;;;;14.45;7.40;;;;;;;11.98;86.87;102243.22;5058197;28;20041;-61
2022/01/01 11:12:25;;;;;;;15.57;7.72;;;;;;;12.03;87.03;102245.44;5055679;28;20021;-61
2022/01/01 11:14:52;;;;;;;14.10;6.95;;;;;;;12.09;86.92;102245.69;5068744;28;20020;-62
2022/01/01 11:17:19;;;;;;;13.02;7.50;;;;;;;12.17;86.85;102241.50;5066979;28;20061;-61
2022/01/01 11:19:45;;;;;;;14.27;6.93;;;;;;;12.25;86.75;102238.94;5055014;28;20515;-61
2022/01/01 11:22:11;;;;;;;18.48;7.13;;;;;;;12.36;86.57;102233.38;5060505;28;20027;-61